logo
App data

Farm for your Life

Your community was taken down by a heavy storm which caused an apocalypse and unleashed the living dead. Together with the other survivors, it is your task to rebuild and to allow that sustainable life can still be assured. Cultivate your farm and manage your restaurant to provide food and deal with all the zombies.
Store | Hub | SteamDB | Site
Developer: Hammer Labs Publisher: Hammer Labs
Genre: Casual, Indie, Simulation, Strategy
Languages: English, French, German, Russian
Tags: Simulation (50), Casual (39), Strategy (38), Indie (37), Zombies (30), Agriculture (18), Tower Defense (16)
Category: Single-player, Steam Achievements
Release date: Jun 16, 2014
Price: $9.99
Score rank: 48% Userscore: 78% Old userscore: 80%
Owners: 50,000 .. 100,000
Followers: 2,649
Peak concurrent players yesterday: 3
YouTube stats: 6 views and 0 comments for videos uploaded last week, 1 new videos uploaded yesterday.
Playtime total: 04:37 (average) 05:03 (median)

Steam Spy is still in beta, so expect major bugs.

Owners data:

Access restricted.

This feature is only available to users with special access rights. Sorry.

If you want to proceed, you need to register or log in first and then back Steam Spy on Patreon. Look for Indie or Pro pledge.

Don't forget to use the same email as on Steam Spy!

Audience in 2 weeks:

Access restricted.

This feature is only available to users with special access rights. Sorry.

If you want to proceed, you need to register or log in first and then back Steam Spy on Patreon. Look for Indie or Pro pledge.

Don't forget to use the same email as on Steam Spy!

Peak daily concurrent players:

CCU data courtesy of SteamDB. Used with permission.

Hourly concurrent players:

Daily Twitch stats:

Hourly Twitch stats:

YouTube:

The views data is based on top 50 videos uploaded last week. Actual number of views might be more than the number shown.

The displayed number of videos uploaded yesterday is limited to 50, so if there were more videos uploaded, the number will still show 50.

If the game has commonly used word as its name (like "FEAR" or "Volume") its number of Youtube views might be wrong.

Games similar to this one:

# Game Release date
Price
Score rank
(Userscore / Metascore)
Owners
Players
Playtime (Median)
1 Night Blights Apr 15, 2016 $4.99100% (100%)0 .. 20,0000%00:00 (00:00)
2 Carrie's Order Up! Sep 13, 2016 $2.9999% (98%)0 .. 20,0000%00:00 (00:00)
3 Luxor Evolved Mar 1, 2012 $9.9997% (97%)50,000 .. 100,0000.47%00:30 (00:10)
4 Hustle Cat Mar 16, 2016 $19.9995% (96%)20,000 .. 50,0000%00:00 (00:00)
5 A Good Snowman Is Hard To Build Feb 25, 2015 $9.9993% (95%)20,000 .. 50,0000%00:00 (00:00)
6 Beat Da Beat Mar 10, 2016 $1.9993% (95%)0 .. 20,0000%00:00 (00:00)
7 Chip's Challenge 2 May 28, 2015 $4.9990% (94%)20,000 .. 50,0003.45%03:55 (01:18)
8 Girls Like Robots Feb 14, 2014 $6.9987% (93%)100,000 .. 200,0000.37%00:01 (00:00)
9 Swapperoo Dec 18, 2015 $4.99N/A (N/A)0 .. 20,0000%00:00 (00:00)
10 [the Sequence] Mar 30, 2016 $1.9987% (93%)0 .. 20,0000%00:00 (00:00)
11 12 Labours of Hercules Mar 23, 2015 $2.9987% (93%)100,000 .. 200,0000.66%03:02 (01:29)
12 Tennis in the Face Nov 18, 2015 $4.9987% (93%)0 .. 20,0000%00:00 (00:00)
13 Earthtongue Apr 27, 2015 $2.4984% (92%)20,000 .. 50,0000%00:00 (00:00)
14 SquareCells Dec 7, 2015 $2.9984% (92%)20,000 .. 50,0000%00:00 (00:00)
15 Grapple Mar 9, 2015 $6.9980% (91%)20,000 .. 50,0000%00:00 (00:00)
16 The Jackbox Party Pack Nov 26, 2014 $24.9980% (91%)200,000 .. 500,0005.22%01:03 (01:07)
17 Tribloos 2 Jan 12, 2013 $4.9980% (91%)100,000 .. 200,0000%00:00 (00:00)
18 Griptape Backbone May 5, 2017 Free80% (91%)0 .. 20,0000%00:00 (00:00)
19 Think To Die 3 Mar 27, 2017 $4.99N/A (N/A)0 .. 20,0000%00:00 (00:00)
20 On Rusty Trails Jun 13, 2016 $12.9977% (90%/77%)50,000 .. 100,0000%00:00 (00:00)
21 Frog Climbers Oct 6, 2016 $6.9977% (90%)20,000 .. 50,0000%00:00 (00:00)
22 12 Labours of Hercules IV: Mother Nature (Platinum Edition) Dec 25, 2015 $2.9974% (89%)20,000 .. 50,0000.84%02:00 (00:40)
23 The Reject Demon: Toko Chapter 0 — Prelude May 9, 2015 $4.9974% (89%)0 .. 20,0000%00:00 (00:00)
24 Koala Kids Jun 22, 2015 $1.9974% (89%)20,000 .. 50,0000%00:00 (00:00)
25 12 Labours of Hercules V: Kids of Hellas (Platinum Edition) Jun 17, 2016 $2.9974% (89%)20,000 .. 50,0001.94%02:40 (01:06)
26 Forgotten, Not Lost - A Kinetic Novel Apr 2, 2016 $1.9974% (89%)50,000 .. 100,0000.32%02:34 (00:51)
27 This Starry Midnight We Make Jun 1, 2015 $9.99N/A (N/A)0 .. 20,0000%00:00 (00:00)
28 Clock Simulator Jul 20, 2016 $0.9974% (89%)20,000 .. 50,0000%00:00 (00:00)
29 Recursion Deluxe Feb 12, 2016 $4.9974% (89%)0 .. 20,0000%00:00 (00:00)
30 Without Within 2 Nov 9, 2015 $4.9972% (88%)0 .. 20,0000%00:00 (00:00)
31 Bob Was Hungry Aug 19, 2015 $9.9972% (88%)20,000 .. 50,0000.98%00:45 (00:15)
32 Thrillville: Off the Rails Oct 9, 2007 $9.9969% (87%/70%)20,000 .. 50,0000%00:00 (00:00)
33 Vampires: Guide Them to Safety! Oct 22, 2014 $4.99N/A (N/A)0 .. 20,0000%00:00 (00:00)
34 Loot Hound Nov 17, 2015 $2.9969% (87%)0 .. 20,0000%00:00 (00:00)
35 Army of Pixels Oct 29, 2015 $4.99N/A (N/A)0 .. 20,0000%00:00 (00:00)
36 Oozi: Earth Adventure Dec 5, 2013 $4.9969% (87%/66%)50,000 .. 100,0000%00:00 (00:00)
37 Asphyxia Aug 4, 2015 $5.9969% (87%)20,000 .. 50,0000%00:00 (00:00)
38 In Between Aug 21, 2015 $11.9966% (86%/68%)50,000 .. 100,0000.47%02:02 (00:40)
39 Darkarta: A Broken Heart's Quest Collector's Edition Mar 8, 2017 $9.9966% (86%)20,000 .. 50,0000%00:00 (00:00)
40 Cursed Sight Aug 3, 2015 $5.9966% (86%)0 .. 20,0000%00:00 (00:00)
41 Sophie's Curse Mar 16, 2016 $4.9966% (86%)50,000 .. 100,0000%00:00 (00:00)
42 Anode Oct 5, 2015 $3.9966% (86%)20,000 .. 50,0000%00:00 (00:00)
43 Magma Tsunami Jun 1, 2016 $0.9964% (85%)100,000 .. 200,0000.2%06:21 (02:07)
44 Sentinel 4: Dark Star Aug 13, 2015 $6.99N/A (N/A)0 .. 20,0000%00:00 (00:00)
45 Alpha Runner Sep 2, 2015 $0.9964% (85%)100,000 .. 200,0000.73%04:20 (01:29)
46 BAD END Nov 25, 2015 $1.9961% (84%)0 .. 20,0000%00:00 (00:00)
47 Job the Leprechaun Jul 31, 2015 $2.9961% (84%)20,000 .. 50,0000%00:00 (00:00)
48 RePete Nov 1, 2015 $1.99N/A (N/A)0 .. 20,0000%00:00 (00:00)
49 Dead Man's Draw Feb 6, 2014 $6.9961% (84%)20,000 .. 50,0000%00:00 (00:00)
50 Gridworld Dec 29, 2015 $0.9958% (83%)0 .. 20,0000%00:00 (00:00)
51 Governor of Poker 2 - Premium Edition Oct 11, 2010 $14.9958% (83%)20,000 .. 50,0000%00:00 (00:00)
52 Steam and Metal Feb 9, 2015 $4.9958% (83%)0 .. 20,0000%00:00 (00:00)
53 Cyto Jul 10, 2014 $3.9958% (83%)20,000 .. 50,0000%00:00 (00:00)
54 Collisions Jul 28, 2015 $3.9956% (82%)50,000 .. 100,0000%00:00 (00:00)
55 Cute Things Dying Violently Sep 2, 2015 $2.99N/A (N/A)0 .. 20,0000%00:00 (00:00)
56 Stay Alight Mar 2, 2015 $3.9954% (81%)20,000 .. 50,0000%00:00 (00:00)
57 Dungeon Painter Studio Feb 26, 2017 $14.9952% (80%)20,000 .. 50,00015.79%16:24 (26:59)
58 Space Drifters 2D Mar 28, 2016 $0.99N/A (N/A)20,000 .. 50,0000%00:00 (00:00)
59 Egg Returns Home May 5, 2015 $0.9952% (80%)20,000 .. 50,0000%00:00 (00:00)
60 GamersGoMakers Aug 8, 2014 $9.9949% (79%)0 .. 20,0000%00:00 (00:00)
61 Archimedes Oct 6, 2016 $2.9949% (79%)100,000 .. 200,0000%00:00 (00:00)
62 Terraform May 8, 2015 $2.99N/A (N/A)0 .. 20,0000%00:00 (00:00)
63 Star Sky - ブルームーン Oct 23, 2015 $3.9949% (79%)0 .. 20,0000%00:00 (00:00)
64 Optika Aug 26, 2016 $4.9949% (79%)20,000 .. 50,0001.2%02:59 (00:59)
65 The Last NightMary - A Lenda do Cabeça de Cuia Nov 2, 2015 $0.5149% (79%)50,000 .. 100,0000%00:00 (00:00)
66 Particulars Nov 19, 2014 $5.9948% (78%/74%)20,000 .. 50,0000%00:00 (00:00)
67 Air Missions: HIND Mar 21, 2016 $16.9948% (78%)0 .. 20,0000%00:00 (00:00)
68 The Survey Oct 27, 2016 $4.9948% (78%)0 .. 20,0000%00:00 (00:00)
69 Neon Prism Nov 18, 2016 $4.9946% (77%)50,000 .. 100,0001.85%02:56 (02:28)
70 Paranormal State: Poison Spring Nov 26, 2013 $9.9946% (77%)50,000 .. 100,0000%00:00 (00:00)
71 Beeftacular Aug 26, 2016 $2.9946% (77%)0 .. 20,0000%00:00 (00:00)
72 SinaRun Oct 26, 2015 $2.9946% (77%)20,000 .. 50,0000%00:00 (00:00)
73 Where are my Internets? Dec 16, 2016 $2.9944% (76%)20,000 .. 50,0000%00:00 (00:00)
74 hackmud Sep 22, 2016 $19.9944% (76%)20,000 .. 50,0008.7%28:32 (19:01)
75 ConflictCraft Dec 8, 2016 $2.99N/A (N/A)20,000 .. 50,0000%00:00 (00:00)
76 Rescue Team 5 Sep 30, 2015 $3.9944% (76%)20,000 .. 50,0001.3%04:30 (01:30)
77 Pixel Puzzles 2: Birds Feb 20, 2015 $9.9944% (76%)200,000 .. 500,0000.61%01:58 (01:26)
78 Fate Tectonics Sep 9, 2015 $9.9942% (75%)0 .. 20,0001.18%01:13 (00:24)
79 The Deletion Jul 30, 2015 $1.9942% (75%)20,000 .. 50,0001.18%00:18 (00:06)
80 Kombine Oct 14, 2016 $0.9942% (75%)20,000 .. 50,0000%00:00 (00:00)
81 MOAI 2: Path to Another World Apr 11, 2015 $7.99N/A (N/A)0 .. 20,0000%00:00 (00:00)
82 Idle Evolution Apr 3, 2017 $4.9937% (72%)0 .. 20,0000%00:00 (00:00)
83 GO AWAY, THERE'S KUMIS OVER THERE! Oct 28, 2016 $0.9937% (72%)50,000 .. 100,0000.39%00:01 (00:00)
84 Axel & Pixel Oct 6, 2010 $4.99N/A (N/A)20,000 .. 50,0000%00:00 (00:00)
85 Turbo Pug 3D Sep 20, 2016 $1.9935% (71%)200,000 .. 500,0000.09%00:38 (00:12)
86 Laserlife Sep 22, 2015 $1.4935% (71%)0 .. 20,0000%00:00 (00:00)
87 Caravanserail Feb 26, 2016 $2.99N/A (N/A)0 .. 20,0000%00:00 (00:00)
88 Zipple World Jan 19, 2016 $4.99N/A (N/A)0 .. 20,0000%00:00 (00:00)
89 Western FPS Mar 13, 2017 $0.9933% (70%)200,000 .. 500,0000.21%00:05 (00:01)
90 Wanda - A Beautiful Apocalypse Jun 3, 2016 $1.9932% (69%)100,000 .. 200,0000%00:00 (00:00)
91 Sinister City Oct 18, 2014 $0.9930% (68%)100,000 .. 200,0000.2%03:16 (01:05)
92 Pester Jan 25, 2013 $0.9930% (68%)100,000 .. 200,0000%00:00 (00:00)
93 Love in the Glen Jun 9, 2016 $5.99N/A (N/A)20,000 .. 50,0000%00:00 (00:00)
94 Alter World May 29, 2015 $1.9928% (67%)100,000 .. 200,0000.21%02:11 (00:43)
95 One Last Chance Apr 7, 2016 $3.9928% (67%)20,000 .. 50,0000%00:00 (00:00)
96 Totally Unbalanced Jul 29, 2016 $2.9928% (67%)0 .. 20,0000%00:00 (00:00)
97 1931: Scheherazade at the Library of Pergamum Mar 26, 2015 $14.9928% (67%)0 .. 20,0000%00:00 (00:00)
98 Mind Games Mar 4, 2016 $2.9928% (67%)0 .. 20,0002.86%00:01 (00:00)
99 Broken Dreams Feb 19, 2016 $1.9927% (66%)200,000 .. 500,0000.14%02:08 (01:25)
100 Lift It Jan 20, 2017 $4.9927% (66%)50,000 .. 100,0002.55%04:36 (06:57)
101 Highborn Feb 19, 2013 $1.9924% (64%)0 .. 20,0000%00:00 (00:00)
102 XCavalypse Jun 6, 2016 $5.99N/A (N/A)0 .. 20,0000%00:00 (00:00)
103 Herding Dog Dec 25, 2015 $2.99N/A (N/A)0 .. 20,0000%00:00 (00:00)
104 Marble Duel Nov 12, 2015 $4.9922% (62%)50,000 .. 100,0000%00:00 (00:00)
105 Power of Love Jul 21, 2015 $0.9922% (62%)20,000 .. 50,0000%00:00 (00:00)
106 Goodnight Butcher Dec 18, 2015 $1.99N/A (N/A)20,000 .. 50,0000%00:00 (00:00)
107 Winexy Jan 13, 2017 $0.9921% (61%)20,000 .. 50,0000%00:00 (00:00)
108 Football Blitz Jan 4, 2017 $3.99N/A (N/A)0 .. 20,0000%00:00 (00:00)
109 FBI MANIA Jan 31, 2017 $0.9920% (60%)100,000 .. 200,0000%00:00 (00:00)
110 Won't You Be My Laser? Sep 2, 2016 $0.99N/A (N/A)0 .. 20,0001.85%05:49 (01:56)
111 Star Chronicles: Delta Quadrant Jul 7, 2015 $0.9919% (59%)200,000 .. 500,0000%00:00 (00:00)
112 Wildlife Park 2 - Dino World Mar 30, 2012 $3.9918% (58%)20,000 .. 50,0000%00:00 (00:00)
113 Bloop Reloaded Feb 6, 2015 $9.9916% (56%)100,000 .. 200,0000.18%00:57 (00:19)
114 Way of Gold and Steel Aug 17, 2015 $8.9916% (56%)20,000 .. 50,0000%00:00 (00:00)
115 Color Syndrome Jun 20, 2016 $0.9916% (56%)20,000 .. 50,0000%00:00 (00:00)
116 Backgammon Blitz Nov 12, 2015 $3.9914% (54%)0 .. 20,0000%00:00 (00:00)
117 Dance Magic Feb 15, 2016 $9.99N/A (N/A)0 .. 20,0000%00:00 (00:00)
118 Drizzlepath Mar 12, 2015 $2.9914% (54%)0 .. 20,0000%00:00 (00:00)
119 Bunny & Piggy Dec 1, 2016 $0.9914% (54%)20,000 .. 50,0001.13%04:58 (03:18)
120 Reptilian Rebellion Aug 8, 2016 $0.9913% (53%)20,000 .. 50,0000%00:00 (00:00)
121 Sky to Fly: Soulless Leviathan Jul 22, 2016 $3.9913% (53%)0 .. 20,0000%00:00 (00:00)
122 Quantum Rush Champions Dec 4, 2014 $9.9912% (51%)20,000 .. 50,0000%00:00 (00:00)
123 King's Guard TD Jun 8, 2016 $2.9911% (50%)100,000 .. 200,0000.5%02:07 (01:24)
124 Rage Runner May 16, 2014 $4.99N/A (N/A)0 .. 20,0000%00:00 (00:00)
125 Autumn Sep 23, 2014 $2.9911% (50%)50,000 .. 100,0000%00:00 (00:00)
126 Racecraft Mar 4, 2016 Free11% (49%)0 .. 20,0000%00:00 (00:00)
127 Ninja Stealth 2 Jan 30, 2017 $0.9910% (48%)20,000 .. 50,0000%00:00 (00:00)
128 Astro Emporia Feb 2, 2015 $0.9910% (47%)20,000 .. 50,0000%00:00 (00:00)
129 Melting Hearts: Our Love Will Grow 2 Apr 29, 2016 N/A8% (43%)20,000 .. 50,0000%00:00 (00:00)
130 iREC Jan 16, 2017 Free8% (42%)20,000 .. 50,0000%00:00 (00:00)
131 European Ship Simulator Nov 4, 2016 $19.996% (38%)50,000 .. 100,0000%00:00 (00:00)
132 Hide and Secret Treasure of the Ages Mar 15, 2007 $0.98N/A (N/A)0 .. 20,0000%00:00 (00:00)
133 Streets of Chaos Jan 23, 2015 $0.995% (34%)100,000 .. 200,0000%00:00 (00:00)
134 Space Hotel Jan 4, 2017 $1.995% (34%)0 .. 20,0000%00:00 (00:00)
135 Burst Mar 14, 2016 $1.99N/A (N/A)50,000 .. 100,0000%00:00 (00:00)
136 Robot vs Birds Zombies Jun 1, 2013 $0.994% (31%)0 .. 20,0000%00:00 (00:00)
137 Labyrinth Simulator Sep 21, 2015 $4.994% (31%)0 .. 20,0000%00:00 (00:00)
138 Hyposphere May 5, 2016 $2.993% (25%)200,000 .. 500,0000%00:00 (00:00)
139 Cyber Team Manager Jan 8, 2016 $4.992% (20%)0 .. 20,0000%00:00 (00:00)
140 One way to exit Mar 12, 2016 $1.99N/A (N/A)200,000 .. 500,0000%00:00 (00:00)

Tags over time:

Access restricted.

This feature is only available to users with special access rights. Sorry.

If you want to proceed, you need to register or log in first and then back Steam Spy on Patreon. Look for Indie or Pro pledge.

Don't forget to use the same email as on Steam Spy!

Owners of this game also own:

Access restricted.

This feature is only available to users with special access rights. Sorry.

If you want to proceed, you need to register or log in first and then back Steam Spy on Patreon. Look for Indie or Pro pledge.

Don't forget to use the same email as on Steam Spy!

Playtime distribution:

Access restricted.

This feature is only available to users with special access rights. Sorry.

If you want to proceed, you need to register or log in first and then back Steam Spy on Patreon. Look for Indie or Pro pledge.

Don't forget to use the same email as on Steam Spy!

Playtime (2 weeks):

Access restricted.

This feature is only available to users with special access rights. Sorry.

If you want to proceed, you need to register or log in first and then back Steam Spy on Patreon. Look for Indie or Pro pledge.

Don't forget to use the same email as on Steam Spy!

User reviews:

Login required.

Please register or log in to see this information.